Martin H — LCWK — position and weather

sailwx.info

Track history (hours):
 
Tides and Currents Weather Stations Pressure Air Temp Water Temp Dewpoint Dewpoint Depression Visibility Wind Speed Wind Dir Waves Ship Positions

Martin H

Last reported at 2017-Oct-19 07:00 UTC. Time now 2017-Oct-19 07:09 UTC.
Position N 68°25' E 016°27'.

Length 68 m; draft 5.8 m.

Type: Cargo ship. MMSI: 257996000.

Date/timePositionNaut miles runAvg speedWind from/ knotsBaromVisibWave heightAir tempDewpointWater temp
2017-Oct-19 07:00N 68°25' E 016°27'4 8.4
2017-Oct-19 06:30N 68°23' E 016°16'4 8.1
2017-Oct-19 06:00N 68°22' E 016°06'4 7.8
2017-Oct-19 05:30N 68°19' E 015°57'4 7.9
2017-Oct-19 05:00N 68°17' E 015°49'4 7.8
2017-Oct-19 04:30N 68°14' E 015°41'4 7.7
2017-Oct-19 03:59N 68°12' E 015°33'4 7.5
2017-Oct-19 03:30N 68°10' E 015°25'4 7.2
2017-Oct-19 03:00N 68°07' E 015°18'4 7.7
2017-Oct-19 02:30N 68°05' E 015°11'4 8.0
2017-Oct-19 02:00N 68°02' E 015°03'4 8.0
2017-Oct-19 01:30N 67°59' E 014°55'4 7.2
2017-Oct-19 01:00N 67°57' E 014°48'3 6.8
2017-Oct-19 00:30N 67°54' E 014°44'3 6.7
2017-Oct-19 00:00N 67°51' E 014°40'4 7.4
2017-Oct-18 23:30N 67°48' E 014°32'3 6.6
2017-Oct-18 23:00N 67°45' E 014°31'4 7.1
2017-Oct-18 22:30N 67°42' E 014°31'4 7.2
2017-Oct-18 22:00N 67°38' E 014°30'3 6.8
2017-Oct-18 21:30N 67°35' E 014°30'3 6.7
2017-Oct-18 21:00N 67°31' E 014°29'3 6.8
2017-Oct-18 20:30N 67°28' E 014°28'3 6.8
2017-Oct-18 20:00N 67°25' E 014°26'4 7.7
2017-Oct-18 19:30N 67°21' E 014°22'4 7.6
2017-Oct-18 19:00N 67°18' E 014°16'4 7.2
2017-Oct-18 18:30N 67°15' E 014°12'3 6.8
2017-Oct-18 18:00N 67°12' E 014°10'3 6.5
2017-Oct-18 17:31N 67°08' E 014°08'0 0.1
2017-Oct-18 17:00N 67°08' E 014°08'0 0.0
2017-Oct-18 16:30N 67°08' E 014°08'0 0.0
2017-Oct-18 16:00N 67°08' E 014°08'0 0.0
2017-Oct-18 15:30N 67°08' E 014°08'0 0.0
2017-Oct-18 15:00N 67°08' E 014°08'0 0.0
2017-Oct-18 14:00N 67°08' E 014°08'0 0.0
2017-Oct-18 13:30N 67°08' E 014°08'0 0.0
2017-Oct-18 13:00N 67°08' E 014°08'0 0.0
2017-Oct-18 12:30N 67°08' E 014°08'2 4.3
2017-Oct-18 12:00N 67°10' E 014°09'511.0
2017-Oct-18 11:30N 67°15' E 014°16'3 6.2
2017-Oct-18 11:00N 67°17' E 014°23'0 0.0
2017-Oct-18 10:30N 67°17' E 014°23'0 0.0
2017-Oct-18 10:00N 67°17' E 014°23'0 0.0
2017-Oct-18 09:30N 67°17' E 014°23'0 0.0
2017-Oct-18 09:00N 67°17' E 014°23'0 0.0
2017-Oct-18 08:30N 67°17' E 014°23'0 0.0
2017-Oct-18 08:00N 67°17' E 014°23'0 0.0
2017-Oct-18 07:30N 67°17' E 014°23'0 0.0
2017-Oct-18 07:00N 67°17' E 014°23'0 0.0
2017-Oct-18 06:30N 67°17' E 014°23'0 0.0
2017-Oct-18 06:00N 67°17' E 014°23'0 0.0
2017-Oct-18 05:30N 67°17' E 014°23'3 5.6
2017-Oct-18 05:00N 67°18' E 014°16'5 9.8
2017-Oct-18 04:30N 67°22' E 014°23'4 7.4
2017-Oct-18 04:00N 67°25' E 014°27'4 7.1
2017-Oct-18 03:30N 67°29' E 014°29'4 7.2
2017-Oct-18 03:00N 67°32' E 014°30'4 7.2
2017-Oct-18 02:30N 67°36' E 014°30'4 7.1
2017-Oct-18 01:59N 67°40' E 014°30'3 6.8
2017-Oct-18 01:30N 67°43' E 014°31'4 7.0
2017-Oct-18 00:59N 67°46' E 014°31'3 6.3
2017-Oct-18 00:30N 67°49' E 014°34'3 6.6
2017-Oct-17 23:59N 67°51' E 014°42'4 8.0
2017-Oct-17 23:29N 67°55' E 014°44'4 8.0
2017-Oct-17 22:59N 67°58' E 014°51'4 7.9
2017-Oct-17 22:30N 68°01' E 014°59'4 8.1
2017-Oct-17 22:00N 68°04' E 015°06'5 8.8
2017-Oct-17 21:29N 68°07' E 015°15'5 9.3
2017-Oct-17 21:00N 68°10' E 015°24'5 9.3
2017-Oct-17 20:30N 68°13' E 015°34'5 9.2
2017-Oct-17 19:59N 68°15' E 015°45'4 9.0
2017-Oct-17 19:29N 68°17' E 015°56'4 8.7
2017-Oct-17 18:59N 68°15' E 016°06'5 9.6
2017-Oct-17 18:29N 68°11' E 016°11'5 9.5
2017-Oct-17 18:00N 68°07' E 016°16'4 7.6
2017-Oct-17 17:30N 68°07' E 016°26'4 8.1
2017-Oct-17 16:59N 68°05' E 016°36'2 3.6
2017-Oct-17 16:30N 68°04' E 016°40'0 0.0
2017-Oct-17 15:59N 68°04' E 016°40'0 0.0
2017-Oct-17 15:30N 68°04' E 016°40'0 0.0
2017-Oct-17 14:59N 68°04' E 016°40'0 0.0
2017-Oct-17 14:30N 68°04' E 016°40'0 0.0
2017-Oct-17 13:59N 68°04' E 016°40'0 0.0
2017-Oct-17 10:41N 68°04' E 016°39'0 0.1
2017-Oct-17 10:20N 68°04' E 016°39'0 0.0
2017-Oct-17 09:24N 68°04' E 016°39'2 4.4
2017-Oct-17 09:00N 68°05' E 016°37'4 6.8
2017-Oct-17 08:29N 68°07' E 016°29'3 6.7
2017-Oct-17 07:59N 68°05' E 016°22'3 7.0
2017-Oct-17 07:30N 68°07' E 016°15'4 7.1
2017-Oct-17 06:59N 68°11' E 016°11'4 7.5
2017-Oct-17 06:30N 68°14' E 016°07'4 7.2
2017-Oct-17 06:00N 68°17' E 016°01'4 7.5
2017-Oct-17 05:29N 68°17' E 015°51'4 7.3
2017-Oct-17 05:00N 68°18' E 015°41'4 7.4
2017-Oct-17 04:30N 68°18' E 015°32'3 5.6
2017-Oct-17 04:00N 68°20' E 015°26'0 0.7
2017-Oct-17 03:29N 68°21' E 015°26'0 0.0
2017-Oct-17 03:00N 68°21' E 015°26'0 0.0
2017-Oct-17 02:30N 68°21' E 015°26'0 0.0
2017-Oct-17 02:00N 68°21' E 015°26'0 0.0
2017-Oct-17 01:30N 68°21' E 015°26'0 0.0
2017-Oct-17 01:00N 68°21' E 015°26'0 0.0
2017-Oct-17 00:30N 68°21' E 015°26'0 0.0
2017-Oct-17 00:00N 68°21' E 015°26'0 0.0
2017-Oct-16 23:30N 68°21' E 015°26'0 0.0
2017-Oct-16 22:59N 68°21' E 015°26'0 0.0
2017-Oct-16 22:30N 68°21' E 015°26'3 6.2
2017-Oct-16 22:00N 68°19' E 015°32'4 8.5
2017-Oct-16 21:30N 68°18' E 015°43'4 9.0
2017-Oct-16 21:00N 68°21' E 015°54'5 9.3
2017-Oct-16 20:30N 68°24' E 016°01'510.2
2017-Oct-16 20:00N 68°29' E 016°07'5 9.5
2017-Oct-16 19:30N 68°33' E 016°14'5 9.5
2017-Oct-16 18:59N 68°33' E 016°27'5 9.3
2017-Oct-16 18:30N 68°37' E 016°34'510.4
2017-Oct-16 18:00N 68°42' E 016°40'4 8.1
2017-Oct-16 17:30N 68°46' E 016°39'1 2.8
2017-Oct-16 17:00N 68°47' E 016°36'0 0.0
2017-Oct-16 16:30N 68°47' E 016°36'0 0.0
2017-Oct-16 16:00N 68°47' E 016°36'0 0.0
2017-Oct-16 15:30N 68°47' E 016°36'0 0.0
2017-Oct-16 15:00N 68°47' E 016°36'0 0.0
2017-Oct-16 14:29N 68°47' E 016°36'0 0.0
2017-Oct-16 13:30N 68°47' E 016°36'0 0.0
2017-Oct-16 13:00N 68°47' E 016°36'0 0.0
2017-Oct-16 12:30N 68°47' E 016°36'0 0.0
2017-Oct-16 12:00N 68°47' E 016°36'1 2.9
2017-Oct-16 11:30N 68°48' E 016°36'1 1.8
2017-Oct-16 11:00N 68°48' E 016°33'0 0.0
2017-Oct-16 10:30N 68°48' E 016°33'0 0.0
2017-Oct-16 09:59N 68°48' E 016°33'0 0.0
2017-Oct-16 09:30N 68°48' E 016°33'0 0.0
2017-Oct-16 09:00N 68°48' E 016°33'0 0.0
2017-Oct-16 08:29N 68°48' E 016°33'0 0.0
2017-Oct-16 08:00N 68°48' E 016°33'3 5.1
2017-Oct-16 07:30N 68°47' E 016°40'4 7.4
2017-Oct-16 07:00N 68°43' E 016°41'4 7.7
2017-Oct-16 06:30N 68°39' E 016°37'4 7.5
2017-Oct-16 06:00N 68°36' E 016°33'3 6.1
2017-Oct-16 05:30N 68°33' E 016°29'3 6.8
2017-Oct-16 05:00N 68°33' E 016°19'3 6.5
2017-Oct-16 04:30N 68°32' E 016°12'4 7.3
2017-Oct-16 04:00N 68°29' E 016°07'4 7.5
2017-Oct-16 03:30N 68°25' E 016°03'4 7.3
2017-Oct-16 03:00N 68°22' E 015°59'4 7.1
2017-Oct-16 02:29N 68°20' E 015°50'4 7.3
2017-Oct-16 02:00N 68°18' E 015°42'3 6.8
2017-Oct-16 01:30N 68°18' E 015°33'3 6.8
2017-Oct-16 01:00N 68°20' E 015°26'0 0.4
2017-Oct-16 00:30N 68°21' E 015°26'0 0.0
2017-Oct-16 00:00N 68°21' E 015°26'0 0.0
2017-Oct-15 23:29N 68°21' E 015°26'0 0.0
2017-Oct-15 23:00N 68°21' E 015°26'0 0.0
2017-Oct-15 22:30N 68°21' E 015°26'0 0.0
2017-Oct-15 22:00N 68°21' E 015°26'0 0.0
2017-Oct-15 21:30N 68°21' E 015°26'0 0.0
2017-Oct-15 21:00N 68°21' E 015°26'2 4.9
2017-Oct-15 20:30N 68°19' E 015°31'5 9.8
2017-Oct-15 20:00N 68°18' E 015°43'510.0
2017-Oct-15 19:30N 68°20' E 015°56'510.1
2017-Oct-15 19:00N 68°22' E 016°09'510.2
2017-Oct-15 18:30N 68°24' E 016°22'510.5
2017-Oct-15 18:00N 68°26' E 016°35'510.6
2017-Oct-15 17:30N 68°26' E 016°49'611.0
2017-Oct-15 17:00N 68°26' E 017°04'611.0
2017-Oct-15 16:30N 68°26' E 017°19'2 4.0
2017-Oct-15 16:00N 68°26' E 017°25'0 0.0
2017-Oct-15 15:30N 68°26' E 017°25'0 0.0
2017-Oct-15 15:00N 68°26' E 017°25'0 0.0
2017-Oct-15 14:00N 68°26' E 017°25'0 0.0
2017-Oct-15 13:30N 68°26' E 017°25'0 0.0
2017-Oct-15 13:00N 68°26' E 017°25'0 0.0
2017-Oct-15 12:30N 68°26' E 017°25'0 0.0
2017-Oct-15 12:00N 68°26' E 017°25'0 0.0
2017-Oct-15 11:30N 68°26' E 017°25'0 0.0
2017-Oct-15 11:00N 68°26' E 017°25'0 0.0
2017-Oct-15 10:30N 68°26' E 017°25'0 0.0
2017-Oct-15 09:59N 68°26' E 017°25'0 0.0
2017-Oct-15 09:30N 68°26' E 017°25'0 0.0
2017-Oct-15 09:00N 68°26' E 017°25'0 0.3
2017-Oct-15 08:30N 68°26' E 017°24'0 0.0
2017-Oct-15 08:00N 68°26' E 017°24'0 0.0
2017-Oct-15 07:30N 68°26' E 017°24'0 0.0
2017-Oct-15 07:00N 68°26' E 017°24'0 0.4
2017-Oct-15 06:29N 68°26' E 017°24'3 5.4
2017-Oct-15 06:00N 68°26' E 017°17'3 6.8
2017-Oct-15 05:30N 68°26' E 017°08'3 6.3
2017-Oct-15 04:59N 68°26' E 016°59'3 6.1
2017-Oct-15 04:30N 68°26' E 016°51'3 6.5
2017-Oct-15 04:00N 68°26' E 016°42'3 6.6
2017-Oct-15 03:29N 68°26' E 016°33'3 6.9
2017-Oct-15 03:00N 68°24' E 016°24'3 6.9
2017-Oct-15 02:30N 68°23' E 016°16'4 6.9
2017-Oct-15 01:59N 68°22' E 016°06'3 6.7
2017-Oct-15 01:30N 68°20' E 015°59'3 6.7
2017-Oct-15 00:59N 68°18' E 015°52'3 6.8
2017-Oct-15 00:30N 68°16' E 015°45'3 6.7
2017-Oct-15 00:00N 68°14' E 015°38'4 7.2
2017-Oct-14 23:30N 68°12' E 015°30'4 8.1
2017-Oct-14 23:00N 68°09' E 015°21'4 8.2
2017-Oct-14 22:30N 68°07' E 015°13'4 8.3
2017-Oct-14 21:59N 68°04' E 015°05'4 8.1
2017-Oct-14 21:30N 68°01' E 014°57'4 7.7
2017-Oct-14 21:00N 67°58' E 014°50'4 7.4
2017-Oct-14 20:30N 67°55' E 014°45'4 7.7
2017-Oct-14 19:59N 67°51' E 014°42'4 8.0
2017-Oct-14 19:30N 67°49' E 014°34'4 7.4
2017-Oct-14 19:00N 67°45' E 014°31'4 7.4
2017-Oct-14 18:30N 67°41' E 014°31'4 7.4
2017-Oct-14 18:00N 67°38' E 014°31'4 7.4
2017-Oct-14 17:30N 67°34' E 014°30'4 8.0
2017-Oct-14 17:00N 67°30' E 014°29'4 8.0
2017-Oct-14 16:30N 67°26' E 014°28'4 8.5
2017-Oct-14 16:00N 67°22' E 014°24'4 8.8
2017-Oct-14 15:30N 67°19' E 014°17'4 8.6
2017-Oct-14 15:00N 67°15' E 014°12'4 8.2
2017-Oct-14 14:30N 67°11' E 014°10'3 5.1
2017-Oct-14 14:00N 67°08' E 014°08'0 0.0
2017-Oct-14 13:30N 67°08' E 014°08'0 0.0
2017-Oct-14 13:00N 67°08' E 014°08'0 0.0
2017-Oct-14 12:30N 67°08' E 014°08'0 0.0
2017-Oct-14 12:00N 67°08' E 014°08'0 0.0
2017-Oct-14 11:30N 67°08' E 014°08'0 0.0
2017-Oct-14 11:00N 67°08' E 014°08'0 0.0
2017-Oct-14 10:30N 67°08' E 014°08'0 0.0
2017-Oct-14 10:00N 67°08' E 014°08'2 4.4
2017-Oct-14 09:30N 67°10' E 014°09'510.1
2017-Oct-14 09:00N 67°15' E 014°16'5 9.7
2017-Oct-14 08:30N 67°19' E 014°23'5 9.7
2017-Oct-14 08:00N 67°24' E 014°26'5 9.6
2017-Oct-14 07:30N 67°28' E 014°28'4 8.9
2017-Oct-14 07:00N 67°33' E 014°30'5 9.2
2017-Oct-14 06:30N 67°37' E 014°31'5 9.3
2017-Oct-14 06:00N 67°42' E 014°31'4 8.8
2017-Oct-14 05:30N 67°46' E 014°31'4 8.1
2017-Oct-14 05:00N 67°50' E 014°37'4 8.8
2017-Oct-14 04:30N 67°53' E 014°44'4 8.4
2017-Oct-14 04:00N 67°57' E 014°48'4 8.2
2017-Oct-14 03:29N 68°00' E 014°55'4 8.6
2017-Oct-14 03:00N 68°03' E 015°04'4 9.0
2017-Oct-14 02:30N 68°06' E 015°13'510.3
2017-Oct-14 02:00N 68°09' E 015°23'510.4
2017-Oct-14 01:30N 68°13' E 015°34'510.1
2017-Oct-14 01:00N 68°16' E 015°44'510.4
2017-Oct-14 00:30N 68°20' E 015°54'5 9.5
2017-Oct-14 00:00N 68°24' E 016°01'5 9.5
2017-Oct-13 23:30N 68°28' E 016°06'510.4
2017-Oct-13 23:00N 68°33' E 016°13'510.2
2017-Oct-13 22:30N 68°33' E 016°27'4 8.3
2017-Oct-13 21:59N 68°37' E 016°33'5 9.7
2017-Oct-13 21:30N 68°41' E 016°40'510.6
2017-Oct-13 21:00N 68°46' E 016°46'510.2
2017-Oct-13 20:30N 68°50' E 016°53'510.3
2017-Oct-13 20:00N 68°54' E 017°02'511.0
2017-Oct-13 19:30N 68°59' E 017°11'611.3
2017-Oct-13 19:00N 69°03' E 017°20'510.4
2017-Oct-13 18:30N 69°06' E 017°31'611.1
2017-Oct-13 18:00N 69°08' E 017°46'611.1
2017-Oct-13 17:30N 69°11' E 017°60'4 8.1
2017-Oct-13 17:00N 69°15' E 017°58'5 9.3
2017-Oct-13 16:30N 69°20' E 018°01'5 9.9
2017-Oct-13 15:59N 69°24' E 018°07'5 9.8
2017-Oct-13 15:30N 69°29' E 018°09'510.6
2017-Oct-13 15:00N 69°31' E 018°23'510.6
2017-Oct-13 14:30N 69°33' E 018°37'4 8.8
2017-Oct-13 14:00N 69°34' E 018°49'510.0
2017-Oct-13 13:30N 69°38' E 018°57'3 5.9
2017-Oct-13 13:00N 69°41' E 019°00'0 0.0
2017-Oct-13 12:30N 69°41' E 019°00'0 0.0
2017-Oct-13 12:00N 69°41' E 019°00'0 0.0
2017-Oct-13 11:30N 69°41' E 019°00'0 0.0
2017-Oct-13 11:00N 69°41' E 019°00'0 0.0
2017-Oct-13 10:30N 69°41' E 019°00'0 0.0
2017-Oct-13 10:00N 69°41' E 019°00'0 0.0
2017-Oct-13 09:30N 69°41' E 019°00'0 0.0
2017-Oct-13 09:00N 69°41' E 019°00'0 0.0
2017-Oct-13 08:30N 69°41' E 019°00'0 0.0
2017-Oct-13 08:00N 69°41' E 019°00'42 4.3
2017-Oct-12 22:18N 69°08' E 017°46'2 7.5
2017-Oct-12 21:59N 69°07' E 017°40'39 7.0
2017-Oct-12 16:24N 68°59' E 015°53'3 7.4
2017-Oct-12 16:00N 68°59' E 015°45'3 6.7
2017-Oct-12 15:29N 68°57' E 015°36'4 7.6
2017-Oct-12 15:00N 68°54' E 015°33'4 7.9
2017-Oct-12 14:30N 68°50' E 015°28'4 7.8
2017-Oct-12 14:00N 68°46' E 015°26'4 7.9
2017-Oct-12 13:30N 68°42' E 015°26'3 7.0
2017-Oct-12 13:00N 68°39' E 015°22'4 7.5
2017-Oct-12 12:30N 68°37' E 015°15'4 7.7
2017-Oct-12 12:00N 68°35' E 015°05'4 7.2
2017-Oct-12 11:30N 68°35' E 014°56'4 7.5
2017-Oct-12 11:00N 68°35' E 014°46'4 7.7
2017-Oct-12 10:30N 68°35' E 014°35'4 7.5
2017-Oct-12 10:00N 68°35' E 014°25'3 6.3
2017-Oct-12 09:30N 68°38' E 014°22'3 6.6
2017-Oct-12 09:00N 68°41' E 014°21'4 7.2
2017-Oct-12 08:30N 68°44' E 014°28'2 3.1
2017-Oct-12 07:59N 68°44' E 014°32'0 0.0
2017-Oct-12 07:30N 68°44' E 014°32'0 0.0
2017-Oct-12 06:59N 68°44' E 014°32'0 0.0
2017-Oct-12 06:30N 68°44' E 014°32'0 0.0
2017-Oct-12 06:00N 68°44' E 014°32'0 0.0
2017-Oct-12 05:29N 68°44' E 014°32'0 0.0
2017-Oct-12 05:00N 68°44' E 014°32'2 4.0
2017-Oct-12 04:30N 68°44' E 014°27'5 9.4
2017-Oct-12 04:00N 68°39' E 014°23'5 9.2
2017-Oct-12 03:30N 68°35' E 014°27'610.9
2017-Oct-12 02:59N 68°36' E 014°42'511.2
2017-Oct-12 02:30N 68°35' E 014°57'510.3
2017-Oct-12 02:00N 68°35' E 015°11'510.7
2017-Oct-12 01:30N 68°39' E 015°22'4 9.0
2017-Oct-12 01:00N 68°43' E 015°25'510.7
2017-Oct-12 00:30N 68°49' E 015°26'510.5
2017-Oct-12 00:00N 68°53' E 015°33'510.1
2017-Oct-11 23:30N 68°58' E 015°38'5 9.9
2017-Oct-11 23:00N 68°59' E 015°52'510.7
2017-Oct-11 22:30N 68°58' E 016°06'511.0
2017-Oct-11 22:00N 68°55' E 016°19'511.0
2017-Oct-11 21:30N 68°51' E 016°31'4 7.1
2017-Oct-11 21:00N 68°48' E 016°34'0 0.0
2017-Oct-11 20:29N 68°48' E 016°34'0 0.0
2017-Oct-11 20:00N 68°48' E 016°34'0 0.0
2017-Oct-11 19:30N 68°48' E 016°34'0 0.0
2017-Oct-11 19:00N 68°48' E 016°34'0 0.0
2017-Oct-11 18:30N 68°48' E 016°34'0 0.0
2017-Oct-11 18:00N 68°48' E 016°34'0 0.0
2017-Oct-11 17:30N 68°48' E 016°34'0 0.0
2017-Oct-11 17:00N 68°48' E 016°34'22 1.3
2017-Oct-11 00:00N 68°58' E 015°39'0 0.0
2017-Oct-10 23:30N 68°58' E 015°39'0 0.0
2017-Oct-10 23:00N 68°58' E 015°39'0 0.0
2017-Oct-10 22:30N 68°58' E 015°39'0 0.0
2017-Oct-10 22:00N 68°58' E 015°39'0 0.0
2017-Oct-10 21:30N 68°58' E 015°39'0 0.0
2017-Oct-10 21:00N 68°58' E 015°39'0 0.0
2017-Oct-10 20:30N 68°58' E 015°39'0 0.0
2017-Oct-10 19:59N 68°58' E 015°39'3 7.0
2017-Oct-10 19:30N 68°55' E 015°35'5 9.2
2017-Oct-10 19:00N 68°51' E 015°29'5 9.4
2017-Oct-10 18:30N 68°46' E 015°25'510.0
2017-Oct-10 18:00N 68°41' E 015°26'5 9.4
2017-Oct-10 17:30N 68°37' E 015°21'1 3.0
2017-Oct-10 17:00N 68°36' E 015°20'0 0.0
2017-Oct-10 16:30N 68°36' E 015°20'0 0.0
2017-Oct-10 16:00N 68°36' E 015°20'0 0.0
2017-Oct-10 15:30N 68°36' E 015°20'0 0.0
2017-Oct-10 15:00N 68°36' E 015°20'8 8.3
2017-Oct-10 14:00N 68°44' E 015°25'510.7
2017-Oct-10 13:30N 68°49' E 015°26'511.0
2017-Oct-10 13:00N 68°54' E 015°33'5 9.9
2017-Oct-10 12:30N 68°58' E 015°40'510.7
2017-Oct-10 12:00N 68°59' E 015°55'611.1
2017-Oct-10 11:30N 68°57' E 016°10'611.1
2017-Oct-10 11:00N 68°54' E 016°22'510.8
2017-Oct-10 10:30N 68°51' E 016°34'3 5.8
2017-Oct-10 10:00N 68°48' E 016°34'0 0.0
2017-Oct-10 09:30N 68°48' E 016°34'0 0.0
2017-Oct-10 09:00N 68°48' E 016°34'0 0.6
2017-Oct-10 08:30N 68°48' E 016°33'0 0.0
2017-Oct-10 08:00N 68°48' E 016°33'0 0.0
2017-Oct-10 07:30N 68°48' E 016°33'0 0.0
2017-Oct-10 07:00N 68°48' E 016°33'0 0.0
2017-Oct-10 06:30N 68°48' E 016°33'0 0.0
2017-Oct-10 06:00N 68°48' E 016°33'0 0.0
2017-Oct-10 05:30N 68°48' E 016°33'0 0.0
2017-Oct-10 05:00N 68°48' E 016°33'0 0.1
2017-Oct-10 04:30N 68°48' E 016°33'3 6.9
2017-Oct-10 04:00N 68°51' E 016°37'5 9.5
2017-Oct-10 03:30N 68°55' E 016°43'4 8.2
2017-Oct-10 03:00N 68°59' E 016°45'5 8.9
2017-Oct-10 02:30N 69°01' E 016°34'0 0.8
2017-Oct-10 02:00N 69°01' E 016°33'0 0.0
2017-Oct-10 01:30N 69°01' E 016°33'0 0.0
2017-Oct-10 01:00N 69°01' E 016°33'0 0.0
2017-Oct-10 00:29N 69°01' E 016°33'3 6.0
2017-Oct-10 00:00N 69°00' E 016°40'4 8.8
2017-Oct-09 23:30N 68°56' E 016°45'510.4
2017-Oct-09 23:00N 68°52' E 016°38'4 8.9
2017-Oct-09 22:30N 68°48' E 016°33'0 0.0
2017-Oct-09 22:00N 68°48' E 016°33'0 0.0
2017-Oct-09 21:29N 68°48' E 016°33'0 0.0
2017-Oct-09 21:00N 68°48' E 016°33'0 0.0
2017-Oct-09 20:30N 68°48' E 016°33'0 0.0
2017-Oct-09 20:00N 68°48' E 016°33'0 0.0
2017-Oct-09 19:30N 68°48' E 016°33'0 0.0
2017-Oct-09 19:00N 68°48' E 016°33'0 0.0
2017-Oct-09 18:29N 68°48' E 016°33'0 0.3
2017-Oct-09 18:00N 68°48' E 016°33'0 0.0
2017-Oct-09 17:30N 68°48' E 016°33'0 0.0
2017-Oct-09 17:00N 68°48' E 016°33'0 0.0
2017-Oct-09 16:30N 68°48' E 016°33'0 0.0
2017-Oct-09 16:01N 68°48' E 016°33'0 0.0
2017-Oct-09 15:30N 68°48' E 016°33'0 0.0
2017-Oct-09 15:00N 68°48' E 016°33'1 1.3
2017-Oct-09 14:30N 68°48' E 016°34'3 6.5
2017-Oct-09 14:00N 68°51' E 016°40'4 7.9
2017-Oct-09 13:30N 68°52' E 016°29'4 8.0
2017-Oct-09 13:00N 68°55' E 016°20'4 8.0
2017-Oct-09 12:30N 68°57' E 016°11'4 8.3
2017-Oct-09 12:00N 68°58' E 016°00'4 7.9
2017-Oct-09 11:29N 68°59' E 015°49'4 7.3
2017-Oct-09 11:00N 68°58' E 015°39'4 7.9
2017-Oct-09 10:30N 68°55' E 015°35'4 8.2
2017-Oct-09 10:00N 68°51' E 015°29'4 8.0
2017-Oct-09 09:29N 68°47' E 015°26'4 7.9
2017-Oct-09 09:00N 68°43' E 015°26'4 7.5
2017-Oct-09 08:30N 68°40' E 015°24'4 8.0
2017-Oct-09 08:00N 68°37' E 015°16'4 8.0
2017-Oct-09 07:30N 68°35' E 015°07'  
Track history (hours):
 
Tides and Currents Weather Stations Pressure Air Temp Water Temp Dewpoint Dewpoint Depression Visibility Wind Speed Wind Dir Waves Ship Positions

Martin H

Last reported at 2017-Oct-19 07:00 UTC. Time now 2017-Oct-19 07:09 UTC.
Position N 68°25' E 016°27'.

Length 68 m; draft 5.8 m.

Type: Cargo ship. MMSI: 257996000.

Date/timePositionNaut miles runAvg speedWind from/ knotsBaromVisibWave heightAir tempDewpointWater temp
2017-Oct-19 07:00N 68°25' E 016°27'4 8.4
2017-Oct-19 06:30N 68°23' E 016°16'4 8.1
2017-Oct-19 06:00N 68°22' E 016°06'4 7.8
2017-Oct-19 05:30N 68°19' E 015°57'4 7.9
2017-Oct-19 05:00N 68°17' E 015°49'4 7.8
2017-Oct-19 04:30N 68°14' E 015°41'4 7.7
2017-Oct-19 03:59N 68°12' E 015°33'4 7.5
2017-Oct-19 03:30N 68°10' E 015°25'4 7.2
2017-Oct-19 03:00N 68°07' E 015°18'4 7.7
2017-Oct-19 02:30N 68°05' E 015°11'4 8.0
2017-Oct-19 02:00N 68°02' E 015°03'4 8.0
2017-Oct-19 01:30N 67°59' E 014°55'4 7.2
2017-Oct-19 01:00N 67°57' E 014°48'3 6.8
2017-Oct-19 00:30N 67°54' E 014°44'3 6.7
2017-Oct-19 00:00N 67°51' E 014°40'4 7.4
2017-Oct-18 23:30N 67°48' E 014°32'3 6.6
2017-Oct-18 23:00N 67°45' E 014°31'4 7.1
2017-Oct-18 22:30N 67°42' E 014°31'4 7.2
2017-Oct-18 22:00N 67°38' E 014°30'3 6.8
2017-Oct-18 21:30N 67°35' E 014°30'3 6.7
2017-Oct-18 21:00N 67°31' E 014°29'3 6.8
2017-Oct-18 20:30N 67°28' E 014°28'3 6.8
2017-Oct-18 20:00N 67°25' E 014°26'4 7.7
2017-Oct-18 19:30N 67°21' E 014°22'4 7.6
2017-Oct-18 19:00N 67°18' E 014°16'4 7.2
2017-Oct-18 18:30N 67°15' E 014°12'3 6.8
2017-Oct-18 18:00N 67°12' E 014°10'3 6.5
2017-Oct-18 17:31N 67°08' E 014°08'0 0.1
2017-Oct-18 17:00N 67°08' E 014°08'0 0.0
2017-Oct-18 16:30N 67°08' E 014°08'0 0.0
2017-Oct-18 16:00N 67°08' E 014°08'0 0.0
2017-Oct-18 15:30N 67°08' E 014°08'0 0.0
2017-Oct-18 15:00N 67°08' E 014°08'0 0.0
2017-Oct-18 14:00N 67°08' E 014°08'0 0.0
2017-Oct-18 13:30N 67°08' E 014°08'0 0.0
2017-Oct-18 13:00N 67°08' E 014°08'0 0.0
2017-Oct-18 12:30N 67°08' E 014°08'2 4.3
2017-Oct-18 12:00N 67°10' E 014°09'511.0
2017-Oct-18 11:30N 67°15' E 014°16'3 6.2
2017-Oct-18 11:00N 67°17' E 014°23'0 0.0
2017-Oct-18 10:30N 67°17' E 014°23'0 0.0
2017-Oct-18 10:00N 67°17' E 014°23'0 0.0
2017-Oct-18 09:30N 67°17' E 014°23'0 0.0
2017-Oct-18 09:00N 67°17' E 014°23'0 0.0
2017-Oct-18 08:30N 67°17' E 014°23'0 0.0
2017-Oct-18 08:00N 67°17' E 014°23'0 0.0
2017-Oct-18 07:30N 67°17' E 014°23'0 0.0
2017-Oct-18 07:00N 67°17' E 014°23'0 0.0
2017-Oct-18 06:30N 67°17' E 014°23'0 0.0
2017-Oct-18 06:00N 67°17' E 014°23'0 0.0
2017-Oct-18 05:30N 67°17' E 014°23'3 5.6
2017-Oct-18 05:00N 67°18' E 014°16'5 9.8
2017-Oct-18 04:30N 67°22' E 014°23'4 7.4
2017-Oct-18 04:00N 67°25' E 014°27'4 7.1
2017-Oct-18 03:30N 67°29' E 014°29'4 7.2
2017-Oct-18 03:00N 67°32' E 014°30'4 7.2
2017-Oct-18 02:30N 67°36' E 014°30'4 7.1
2017-Oct-18 01:59N 67°40' E 014°30'3 6.8
2017-Oct-18 01:30N 67°43' E 014°31'4 7.0
2017-Oct-18 00:59N 67°46' E 014°31'3 6.3
2017-Oct-18 00:30N 67°49' E 014°34'3 6.6
2017-Oct-17 23:59N 67°51' E 014°42'4 8.0
2017-Oct-17 23:29N 67°55' E 014°44'4 8.0
2017-Oct-17 22:59N 67°58' E 014°51'4 7.9
2017-Oct-17 22:30N 68°01' E 014°59'4 8.1
2017-Oct-17 22:00N 68°04' E 015°06'5 8.8
2017-Oct-17 21:29N 68°07' E 015°15'5 9.3
2017-Oct-17 21:00N 68°10' E 015°24'5 9.3
2017-Oct-17 20:30N 68°13' E 015°34'5 9.2
2017-Oct-17 19:59N 68°15' E 015°45'4 9.0
2017-Oct-17 19:29N 68°17' E 015°56'4 8.7
2017-Oct-17 18:59N 68°15' E 016°06'5 9.6
2017-Oct-17 18:29N 68°11' E 016°11'5 9.5
2017-Oct-17 18:00N 68°07' E 016°16'4 7.6
2017-Oct-17 17:30N 68°07' E 016°26'4 8.1
2017-Oct-17 16:59N 68°05' E 016°36'2 3.6
2017-Oct-17 16:30N 68°04' E 016°40'0 0.0
2017-Oct-17 15:59N 68°04' E 016°40'0 0.0
2017-Oct-17 15:30N 68°04' E 016°40'0 0.0
2017-Oct-17 14:59N 68°04' E 016°40'0 0.0
2017-Oct-17 14:30N 68°04' E 016°40'0 0.0
2017-Oct-17 13:59N 68°04' E 016°40'0 0.0
2017-Oct-17 10:41N 68°04' E 016°39'0 0.1
2017-Oct-17 10:20N 68°04' E 016°39'0 0.0
2017-Oct-17 09:24N 68°04' E 016°39'2 4.4
2017-Oct-17 09:00N 68°05' E 016°37'4 6.8
2017-Oct-17 08:29N 68°07' E 016°29'3 6.7
2017-Oct-17 07:59N 68°05' E 016°22'3 7.0
2017-Oct-17 07:30N 68°07' E 016°15'4 7.1
2017-Oct-17 06:59N 68°11' E 016°11'4 7.5
2017-Oct-17 06:30N 68°14' E 016°07'4 7.2
2017-Oct-17 06:00N 68°17' E 016°01'4 7.5
2017-Oct-17 05:29N 68°17' E 015°51'4 7.3
2017-Oct-17 05:00N 68°18' E 015°41'4 7.4
2017-Oct-17 04:30N 68°18' E 015°32'3 5.6
2017-Oct-17 04:00N 68°20' E 015°26'0 0.7
2017-Oct-17 03:29N 68°21' E 015°26'0 0.0
2017-Oct-17 03:00N 68°21' E 015°26'0 0.0
2017-Oct-17 02:30N 68°21' E 015°26'0 0.0
2017-Oct-17 02:00N 68°21' E 015°26'0 0.0
2017-Oct-17 01:30N 68°21' E 015°26'0 0.0
2017-Oct-17 01:00N 68°21' E 015°26'0 0.0
2017-Oct-17 00:30N 68°21' E 015°26'0 0.0
2017-Oct-17 00:00N 68°21' E 015°26'0 0.0
2017-Oct-16 23:30N 68°21' E 015°26'0 0.0
2017-Oct-16 22:59N 68°21' E 015°26'0 0.0
2017-Oct-16 22:30N 68°21' E 015°26'3 6.2
2017-Oct-16 22:00N 68°19' E 015°32'4 8.5
2017-Oct-16 21:30N 68°18' E 015°43'4 9.0
2017-Oct-16 21:00N 68°21' E 015°54'5 9.3
2017-Oct-16 20:30N 68°24' E 016°01'510.2
2017-Oct-16 20:00N 68°29' E 016°07'5 9.5
2017-Oct-16 19:30N 68°33' E 016°14'5 9.5
2017-Oct-16 18:59N 68°33' E 016°27'5 9.3
2017-Oct-16 18:30N 68°37' E 016°34'510.4
2017-Oct-16 18:00N 68°42' E 016°40'4 8.1
2017-Oct-16 17:30N 68°46' E 016°39'1 2.8
2017-Oct-16 17:00N 68°47' E 016°36'0 0.0
2017-Oct-16 16:30N 68°47' E 016°36'0 0.0
2017-Oct-16 16:00N 68°47' E 016°36'0 0.0
2017-Oct-16 15:30N 68°47' E 016°36'0 0.0
2017-Oct-16 15:00N 68°47' E 016°36'0 0.0
2017-Oct-16 14:29N 68°47' E 016°36'0 0.0
2017-Oct-16 13:30N 68°47' E 016°36'0 0.0
2017-Oct-16 13:00N 68°47' E 016°36'0 0.0
2017-Oct-16 12:30N 68°47' E 016°36'0 0.0
2017-Oct-16 12:00N 68°47' E 016°36'1 2.9
2017-Oct-16 11:30N 68°48' E 016°36'1 1.8
2017-Oct-16 11:00N 68°48' E 016°33'0 0.0
2017-Oct-16 10:30N 68°48' E 016°33'0 0.0
2017-Oct-16 09:59N 68°48' E 016°33'0 0.0
2017-Oct-16 09:30N 68°48' E 016°33'0 0.0
2017-Oct-16 09:00N 68°48' E 016°33'0 0.0
2017-Oct-16 08:29N 68°48' E 016°33'0 0.0
2017-Oct-16 08:00N 68°48' E 016°33'3 5.1
2017-Oct-16 07:30N 68°47' E 016°40'4 7.4
2017-Oct-16 07:00N 68°43' E 016°41'4 7.7
2017-Oct-16 06:30N 68°39' E 016°37'4 7.5
2017-Oct-16 06:00N 68°36' E 016°33'3 6.1
2017-Oct-16 05:30N 68°33' E 016°29'3 6.8
2017-Oct-16 05:00N 68°33' E 016°19'3 6.5
2017-Oct-16 04:30N 68°32' E 016°12'4 7.3
2017-Oct-16 04:00N 68°29' E 016°07'4 7.5
2017-Oct-16 03:30N 68°25' E 016°03'4 7.3
2017-Oct-16 03:00N 68°22' E 015°59'4 7.1
2017-Oct-16 02:29N 68°20' E 015°50'4 7.3
2017-Oct-16 02:00N 68°18' E 015°42'3 6.8
2017-Oct-16 01:30N 68°18' E 015°33'3 6.8
2017-Oct-16 01:00N 68°20' E 015°26'0 0.4
2017-Oct-16 00:30N 68°21' E 015°26'0 0.0
2017-Oct-16 00:00N 68°21' E 015°26'0 0.0
2017-Oct-15 23:29N 68°21' E 015°26'0 0.0
2017-Oct-15 23:00N 68°21' E 015°26'0 0.0
2017-Oct-15 22:30N 68°21' E 015°26'0 0.0
2017-Oct-15 22:00N 68°21' E 015°26'0 0.0
2017-Oct-15 21:30N 68°21' E 015°26'0 0.0
2017-Oct-15 21:00N 68°21' E 015°26'2 4.9
2017-Oct-15 20:30N 68°19' E 015°31'5 9.8
2017-Oct-15 20:00N 68°18' E 015°43'510.0
2017-Oct-15 19:30N 68°20' E 015°56'510.1
2017-Oct-15 19:00N 68°22' E 016°09'510.2
2017-Oct-15 18:30N 68°24' E 016°22'510.5
2017-Oct-15 18:00N 68°26' E 016°35'510.6
2017-Oct-15 17:30N 68°26' E 016°49'611.0
2017-Oct-15 17:00N 68°26' E 017°04'611.0
2017-Oct-15 16:30N 68°26' E 017°19'2 4.0
2017-Oct-15 16:00N 68°26' E 017°25'0 0.0
2017-Oct-15 15:30N 68°26' E 017°25'0 0.0
2017-Oct-15 15:00N 68°26' E 017°25'0 0.0
2017-Oct-15 14:00N 68°26' E 017°25'0 0.0
2017-Oct-15 13:30N 68°26' E 017°25'0 0.0
2017-Oct-15 13:00N 68°26' E 017°25'0 0.0
2017-Oct-15 12:30N 68°26' E 017°25'0 0.0
2017-Oct-15 12:00N 68°26' E 017°25'0 0.0
2017-Oct-15 11:30N 68°26' E 017°25'0 0.0
2017-Oct-15 11:00N 68°26' E 017°25'0 0.0
2017-Oct-15 10:30N 68°26' E 017°25'0 0.0
2017-Oct-15 09:59N 68°26' E 017°25'0 0.0
2017-Oct-15 09:30N 68°26' E 017°25'0 0.0
2017-Oct-15 09:00N 68°26' E 017°25'0 0.3
2017-Oct-15 08:30N 68°26' E 017°24'0 0.0
2017-Oct-15 08:00N 68°26' E 017°24'0 0.0
2017-Oct-15 07:30N 68°26' E 017°24'0 0.0
2017-Oct-15 07:00N 68°26' E 017°24'0 0.4
2017-Oct-15 06:29N 68°26' E 017°24'3 5.4
2017-Oct-15 06:00N 68°26' E 017°17'3 6.8
2017-Oct-15 05:30N 68°26' E 017°08'3 6.3
2017-Oct-15 04:59N 68°26' E 016°59'3 6.1
2017-Oct-15 04:30N 68°26' E 016°51'3 6.5
2017-Oct-15 04:00N 68°26' E 016°42'3 6.6
2017-Oct-15 03:29N 68°26' E 016°33'3 6.9
2017-Oct-15 03:00N 68°24' E 016°24'3 6.9
2017-Oct-15 02:30N 68°23' E 016°16'4 6.9
2017-Oct-15 01:59N 68°22' E 016°06'3 6.7
2017-Oct-15 01:30N 68°20' E 015°59'3 6.7
2017-Oct-15 00:59N 68°18' E 015°52'3 6.8
2017-Oct-15 00:30N 68°16' E 015°45'3 6.7
2017-Oct-15 00:00N 68°14' E 015°38'4 7.2
2017-Oct-14 23:30N 68°12' E 015°30'4 8.1
2017-Oct-14 23:00N 68°09' E 015°21'4 8.2
2017-Oct-14 22:30N 68°07' E 015°13'4 8.3
2017-Oct-14 21:59N 68°04' E 015°05'4 8.1
2017-Oct-14 21:30N 68°01' E 014°57'4 7.7
2017-Oct-14 21:00N 67°58' E 014°50'4 7.4
2017-Oct-14 20:30N 67°55' E 014°45'4 7.7
2017-Oct-14 19:59N 67°51' E 014°42'4 8.0
2017-Oct-14 19:30N 67°49' E 014°34'4 7.4
2017-Oct-14 19:00N 67°45' E 014°31'4 7.4
2017-Oct-14 18:30N 67°41' E 014°31'4 7.4
2017-Oct-14 18:00N 67°38' E 014°31'4 7.4
2017-Oct-14 17:30N 67°34' E 014°30'4 8.0
2017-Oct-14 17:00N 67°30' E 014°29'4 8.0
2017-Oct-14 16:30N 67°26' E 014°28'4 8.5
2017-Oct-14 16:00N 67°22' E 014°24'4 8.8
2017-Oct-14 15:30N 67°19' E 014°17'4 8.6
2017-Oct-14 15:00N 67°15' E 014°12'4 8.2
2017-Oct-14 14:30N 67°11' E 014°10'3 5.1
2017-Oct-14 14:00N 67°08' E 014°08'0 0.0
2017-Oct-14 13:30N 67°08' E 014°08'0 0.0
2017-Oct-14 13:00N 67°08' E 014°08'0 0.0
2017-Oct-14 12:30N 67°08' E 014°08'0 0.0
2017-Oct-14 12:00N 67°08' E 014°08'0 0.0
2017-Oct-14 11:30N 67°08' E 014°08'0 0.0
2017-Oct-14 11:00N 67°08' E 014°08'0 0.0
2017-Oct-14 10:30N 67°08' E 014°08'0 0.0
2017-Oct-14 10:00N 67°08' E 014°08'2 4.4
2017-Oct-14 09:30N 67°10' E 014°09'510.1
2017-Oct-14 09:00N 67°15' E 014°16'5 9.7
2017-Oct-14 08:30N 67°19' E 014°23'5 9.7
2017-Oct-14 08:00N 67°24' E 014°26'5 9.6
2017-Oct-14 07:30N 67°28' E 014°28'4 8.9
2017-Oct-14 07:00N 67°33' E 014°30'5 9.2
2017-Oct-14 06:30N 67°37' E 014°31'5 9.3
2017-Oct-14 06:00N 67°42' E 014°31'4 8.8
2017-Oct-14 05:30N 67°46' E 014°31'4 8.1
2017-Oct-14 05:00N 67°50' E 014°37'4 8.8
2017-Oct-14 04:30N 67°53' E 014°44'4 8.4
2017-Oct-14 04:00N 67°57' E 014°48'4 8.2
2017-Oct-14 03:29N 68°00' E 014°55'4 8.6
2017-Oct-14 03:00N 68°03' E 015°04'4 9.0
2017-Oct-14 02:30N 68°06' E 015°13'510.3
2017-Oct-14 02:00N 68°09' E 015°23'510.4
2017-Oct-14 01:30N 68°13' E 015°34'510.1
2017-Oct-14 01:00N 68°16' E 015°44'510.4
2017-Oct-14 00:30N 68°20' E 015°54'5 9.5
2017-Oct-14 00:00N 68°24' E 016°01'5 9.5
2017-Oct-13 23:30N 68°28' E 016°06'510.4
2017-Oct-13 23:00N 68°33' E 016°13'510.2
2017-Oct-13 22:30N 68°33' E 016°27'4 8.3
2017-Oct-13 21:59N 68°37' E 016°33'5 9.7
2017-Oct-13 21:30N 68°41' E 016°40'510.6
2017-Oct-13 21:00N 68°46' E 016°46'510.2
2017-Oct-13 20:30N 68°50' E 016°53'510.3
2017-Oct-13 20:00N 68°54' E 017°02'511.0
2017-Oct-13 19:30N 68°59' E 017°11'611.3
2017-Oct-13 19:00N 69°03' E 017°20'510.4
2017-Oct-13 18:30N 69°06' E 017°31'611.1
2017-Oct-13 18:00N 69°08' E 017°46'611.1
2017-Oct-13 17:30N 69°11' E 017°60'4 8.1
2017-Oct-13 17:00N 69°15' E 017°58'5 9.3
2017-Oct-13 16:30N 69°20' E 018°01'5 9.9
2017-Oct-13 15:59N 69°24' E 018°07'5 9.8
2017-Oct-13 15:30N 69°29' E 018°09'510.6
2017-Oct-13 15:00N 69°31' E 018°23'510.6
2017-Oct-13 14:30N 69°33' E 018°37'4 8.8
2017-Oct-13 14:00N 69°34' E 018°49'510.0
2017-Oct-13 13:30N 69°38' E 018°57'3 5.9
2017-Oct-13 13:00N 69°41' E 019°00'0 0.0
2017-Oct-13 12:30N 69°41' E 019°00'0 0.0
2017-Oct-13 12:00N 69°41' E 019°00'0 0.0
2017-Oct-13 11:30N 69°41' E 019°00'0 0.0
2017-Oct-13 11:00N 69°41' E 019°00'0 0.0
2017-Oct-13 10:30N 69°41' E 019°00'0 0.0
2017-Oct-13 10:00N 69°41' E 019°00'0 0.0
2017-Oct-13 09:30N 69°41' E 019°00'0 0.0
2017-Oct-13 09:00N 69°41' E 019°00'0 0.0
2017-Oct-13 08:30N 69°41' E 019°00'0 0.0
2017-Oct-13 08:00N 69°41' E 019°00'42 4.3
2017-Oct-12 22:18N 69°08' E 017°46'2 7.5
2017-Oct-12 21:59N 69°07' E 017°40'39 7.0
2017-Oct-12 16:24N 68°59' E 015°53'3 7.4
2017-Oct-12 16:00N 68°59' E 015°45'3 6.7
2017-Oct-12 15:29N 68°57' E 015°36'4 7.6
2017-Oct-12 15:00N 68°54' E 015°33'4 7.9
2017-Oct-12 14:30N 68°50' E 015°28'4 7.8
2017-Oct-12 14:00N 68°46' E 015°26'4 7.9
2017-Oct-12 13:30N 68°42' E 015°26'3 7.0
2017-Oct-12 13:00N 68°39' E 015°22'4 7.5
2017-Oct-12 12:30N 68°37' E 015°15'4 7.7
2017-Oct-12 12:00N 68°35' E 015°05'4 7.2
2017-Oct-12 11:30N 68°35' E 014°56'4 7.5
2017-Oct-12 11:00N 68°35' E 014°46'4 7.7
2017-Oct-12 10:30N 68°35' E 014°35'4 7.5
2017-Oct-12 10:00N 68°35' E 014°25'3 6.3
2017-Oct-12 09:30N 68°38' E 014°22'3 6.6
2017-Oct-12 09:00N 68°41' E 014°21'4 7.2
2017-Oct-12 08:30N 68°44' E 014°28'2 3.1
2017-Oct-12 07:59N 68°44' E 014°32'0 0.0
2017-Oct-12 07:30N 68°44' E 014°32'0 0.0
2017-Oct-12 06:59N 68°44' E 014°32'0 0.0
2017-Oct-12 06:30N 68°44' E 014°32'0 0.0
2017-Oct-12 06:00N 68°44' E 014°32'0 0.0
2017-Oct-12 05:29N 68°44' E 014°32'0 0.0
2017-Oct-12 05:00N 68°44' E 014°32'2 4.0
2017-Oct-12 04:30N 68°44' E 014°27'5 9.4
2017-Oct-12 04:00N 68°39' E 014°23'5 9.2
2017-Oct-12 03:30N 68°35' E 014°27'610.9
2017-Oct-12 02:59N 68°36' E 014°42'511.2
2017-Oct-12 02:30N 68°35' E 014°57'510.3
2017-Oct-12 02:00N 68°35' E 015°11'510.7
2017-Oct-12 01:30N 68°39' E 015°22'4 9.0
2017-Oct-12 01:00N 68°43' E 015°25'510.7
2017-Oct-12 00:30N 68°49' E 015°26'510.5
2017-Oct-12 00:00N 68°53' E 015°33'510.1
2017-Oct-11 23:30N 68°58' E 015°38'5 9.9
2017-Oct-11 23:00N 68°59' E 015°52'510.7
2017-Oct-11 22:30N 68°58' E 016°06'511.0
2017-Oct-11 22:00N 68°55' E 016°19'511.0
2017-Oct-11 21:30N 68°51' E 016°31'4 7.1
2017-Oct-11 21:00N 68°48' E 016°34'0 0.0
2017-Oct-11 20:29N 68°48' E 016°34'0 0.0
2017-Oct-11 20:00N 68°48' E 016°34'0 0.0
2017-Oct-11 19:30N 68°48' E 016°34'0 0.0
2017-Oct-11 19:00N 68°48' E 016°34'0 0.0
2017-Oct-11 18:30N 68°48' E 016°34'0 0.0
2017-Oct-11 18:00N 68°48' E 016°34'0 0.0
2017-Oct-11 17:30N 68°48' E 016°34'0 0.0
2017-Oct-11 17:00N 68°48' E 016°34'22 1.3
2017-Oct-11 00:00N 68°58' E 015°39'0 0.0
2017-Oct-10 23:30N 68°58' E 015°39'0 0.0
2017-Oct-10 23:00N 68°58' E 015°39'0 0.0
2017-Oct-10 22:30N 68°58' E 015°39'0 0.0
2017-Oct-10 22:00N 68°58' E 015°39'0 0.0
2017-Oct-10 21:30N 68°58' E 015°39'0 0.0
2017-Oct-10 21:00N 68°58' E 015°39'0 0.0
2017-Oct-10 20:30N 68°58' E 015°39'0 0.0
2017-Oct-10 19:59N 68°58' E 015°39'3 7.0
2017-Oct-10 19:30N 68°55' E 015°35'5 9.2
2017-Oct-10 19:00N 68°51' E 015°29'5 9.4
2017-Oct-10 18:30N 68°46' E 015°25'510.0
2017-Oct-10 18:00N 68°41' E 015°26'5 9.4
2017-Oct-10 17:30N 68°37' E 015°21'1 3.0
2017-Oct-10 17:00N 68°36' E 015°20'0 0.0
2017-Oct-10 16:30N 68°36' E 015°20'0 0.0
2017-Oct-10 16:00N 68°36' E 015°20'0 0.0
2017-Oct-10 15:30N 68°36' E 015°20'0 0.0
2017-Oct-10 15:00N 68°36' E 015°20'8 8.3
2017-Oct-10 14:00N 68°44' E 015°25'510.7
2017-Oct-10 13:30N 68°49' E 015°26'511.0
2017-Oct-10 13:00N 68°54' E 015°33'5 9.9
2017-Oct-10 12:30N 68°58' E 015°40'510.7
2017-Oct-10 12:00N 68°59' E 015°55'611.1
2017-Oct-10 11:30N 68°57' E 016°10'611.1
2017-Oct-10 11:00N 68°54' E 016°22'510.8
2017-Oct-10 10:30N 68°51' E 016°34'3 5.8
2017-Oct-10 10:00N 68°48' E 016°34'0 0.0
2017-Oct-10 09:30N 68°48' E 016°34'0 0.0
2017-Oct-10 09:00N 68°48' E 016°34'0 0.6
2017-Oct-10 08:30N 68°48' E 016°33'0 0.0
2017-Oct-10 08:00N 68°48' E 016°33'0 0.0
2017-Oct-10 07:30N 68°48' E 016°33'0 0.0
2017-Oct-10 07:00N 68°48' E 016°33'0 0.0
2017-Oct-10 06:30N 68°48' E 016°33'0 0.0
2017-Oct-10 06:00N 68°48' E 016°33'0 0.0
2017-Oct-10 05:30N 68°48' E 016°33'0 0.0
2017-Oct-10 05:00N 68°48' E 016°33'0 0.1
2017-Oct-10 04:30N 68°48' E 016°33'3 6.9
2017-Oct-10 04:00N 68°51' E 016°37'5 9.5
2017-Oct-10 03:30N 68°55' E 016°43'4 8.2
2017-Oct-10 03:00N 68°59' E 016°45'5 8.9
2017-Oct-10 02:30N 69°01' E 016°34'0 0.8
2017-Oct-10 02:00N 69°01' E 016°33'0 0.0
2017-Oct-10 01:30N 69°01' E 016°33'0 0.0
2017-Oct-10 01:00N 69°01' E 016°33'0 0.0
2017-Oct-10 00:29N 69°01' E 016°33'3 6.0
2017-Oct-10 00:00N 69°00' E 016°40'4 8.8
2017-Oct-09 23:30N 68°56' E 016°45'510.4
2017-Oct-09 23:00N 68°52' E 016°38'4 8.9
2017-Oct-09 22:30N 68°48' E 016°33'0 0.0
2017-Oct-09 22:00N 68°48' E 016°33'0 0.0
2017-Oct-09 21:29N 68°48' E 016°33'0 0.0
2017-Oct-09 21:00N 68°48' E 016°33'0 0.0
2017-Oct-09 20:30N 68°48' E 016°33'0 0.0
2017-Oct-09 20:00N 68°48' E 016°33'0 0.0
2017-Oct-09 19:30N 68°48' E 016°33'0 0.0
2017-Oct-09 19:00N 68°48' E 016°33'0 0.0
2017-Oct-09 18:29N 68°48' E 016°33'0 0.3
2017-Oct-09 18:00N 68°48' E 016°33'0 0.0
2017-Oct-09 17:30N 68°48' E 016°33'0 0.0
2017-Oct-09 17:00N 68°48' E 016°33'0 0.0
2017-Oct-09 16:30N 68°48' E 016°33'0 0.0
2017-Oct-09 16:01N 68°48' E 016°33'0 0.0
2017-Oct-09 15:30N 68°48' E 016°33'0 0.0
2017-Oct-09 15:00N 68°48' E 016°33'1 1.3
2017-Oct-09 14:30N 68°48' E 016°34'3 6.5
2017-Oct-09 14:00N 68°51' E 016°40'4 7.9
2017-Oct-09 13:30N 68°52' E 016°29'4 8.0
2017-Oct-09 13:00N 68°55' E 016°20'4 8.0
2017-Oct-09 12:30N 68°57' E 016°11'4 8.3
2017-Oct-09 12:00N 68°58' E 016°00'4 7.9
2017-Oct-09 11:29N 68°59' E 015°49'4 7.3
2017-Oct-09 11:00N 68°58' E 015°39'4 7.9
2017-Oct-09 10:30N 68°55' E 015°35'4 8.2
2017-Oct-09 10:00N 68°51' E 015°29'4 8.0
2017-Oct-09 09:29N 68°47' E 015°26'4 7.9
2017-Oct-09 09:00N 68°43' E 015°26'4 7.5
2017-Oct-09 08:30N 68°40' E 015°24'4 8.0
2017-Oct-09 08:00N 68°37' E 015°16'4 8.0
2017-Oct-09 07:30N 68°35' E 015°07'  

Dump ship's entire track history